sensor_id;sensor_type;location;lat;lon;timestamp;P1;durP1;ratioP1;P2;durP2;ratioP2
2602;SDS011;1311;47.966;7.958;2022-10-31T00:01:40;4.30;;;1.97;;
2602;SDS011;1311;47.966;7.958;2022-10-31T00:04:08;4.47;;;2.63;;
2602;SDS011;1311;47.966;7.958;2022-10-31T00:06:35;4.23;;;2.17;;
2602;SDS011;1311;47.966;7.958;2022-10-31T00:09:02;2.40;;;1.97;;
2602;SDS011;1311;47.966;7.958;2022-10-31T00:11:30;3.33;;;2.07;;
2602;SDS011;1311;47.966;7.958;2022-10-31T00:13:57;2.20;;;2.00;;
2602;SDS011;1311;47.966;7.958;2022-10-31T00:16:25;6.43;;;2.47;;
2602;SDS011;1311;47.966;7.958;2022-10-31T00:18:53;4.63;;;2.13;;
2602;SDS011;1311;47.966;7.958;2022-10-31T00:21:23;2.13;;;1.90;;
2602;SDS011;1311;47.966;7.958;2022-10-31T00:23:50;5.27;;;2.27;;
2602;SDS011;1311;47.966;7.958;2022-10-31T00:26:17;4.57;;;2.33;;
2602;SDS011;1311;47.966;7.958;2022-10-31T00:28:44;5.77;;;1.80;;
2602;SDS011;1311;47.966;7.958;2022-10-31T00:31:12;3.10;;;2.00;;
2602;SDS011;1311;47.966;7.958;2022-10-31T00:33:39;3.40;;;2.00;;
2602;SDS011;1311;47.966;7.958;2022-10-31T00:36:07;3.03;;;2.03;;
2602;SDS011;1311;47.966;7.958;2022-10-31T00:38:39;3.57;;;1.97;;
2602;SDS011;1311;47.966;7.958;2022-10-31T00:41:06;2.93;;;1.60;;
2602;SDS011;1311;47.966;7.958;2022-10-31T00:43:32;5.60;;;1.47;;
2602;SDS011;1311;47.966;7.958;2022-10-31T00:45:59;1.70;;;1.60;;
2602;SDS011;1311;47.966;7.958;2022-10-31T00:48:26;2.37;;;1.63;;
2602;SDS011;1311;47.966;7.958;2022-10-31T00:50:54;5.13;;;2.07;;
2602;SDS011;1311;47.966;7.958;2022-10-31T00:53:21;3.00;;;1.73;;
2602;SDS011;1311;47.966;7.958;2022-10-31T00:55:49;5.30;;;1.70;;
2602;SDS011;1311;47.966;7.958;2022-10-31T00:58:15;3.70;;;2.07;;
2602;SDS011;1311;47.966;7.958;2022-10-31T01:00:42;3.60;;;2.13;;
2602;SDS011;1311;47.966;7.958;2022-10-31T01:03:09;2.93;;;2.00;;
2602;SDS011;1311;47.966;7.958;2022-10-31T01:05:36;3.93;;;1.83;;
2602;SDS011;1311;47.966;7.958;2022-10-31T01:08:03;3.80;;;1.80;;
2602;SDS011;1311;47.966;7.958;2022-10-31T01:10:30;4.13;;;2.23;;
2602;SDS011;1311;47.966;7.958;2022-10-31T01:12:58;3.70;;;2.27;;
2602;SDS011;1311;47.966;7.958;2022-10-31T01:15:24;9.47;;;2.17;;
2602;SDS011;1311;47.966;7.958;2022-10-31T01:17:51;2.63;;;1.97;;
2602;SDS011;1311;47.966;7.958;2022-10-31T01:20:18;3.27;;;1.70;;
2602;SDS011;1311;47.966;7.958;2022-10-31T01:22:46;5.57;;;2.57;;
2602;SDS011;1311;47.966;7.958;2022-10-31T01:25:13;2.20;;;2.00;;
2602;SDS011;1311;47.966;7.958;2022-10-31T01:27:39;2.80;;;2.00;;
2602;SDS011;1311;47.966;7.958;2022-10-31T01:30:08;3.33;;;1.77;;
2602;SDS011;1311;47.966;7.958;2022-10-31T01:32:35;1.60;;;1.40;;
2602;SDS011;1311;47.966;7.958;2022-10-31T01:35:02;2.83;;;1.80;;
2602;SDS011;1311;47.966;7.958;2022-10-31T01:37:30;2.83;;;2.00;;
2602;SDS011;1311;47.966;7.958;2022-10-31T01:39:57;3.40;;;1.93;;
2602;SDS011;1311;47.966;7.958;2022-10-31T01:42:24;5.60;;;1.80;;
2602;SDS011;1311;47.966;7.958;2022-10-31T01:44:53;3.13;;;1.60;;
2602;SDS011;1311;47.966;7.958;2022-10-31T01:47:29;4.00;;;1.60;;
2602;SDS011;1311;47.966;7.958;2022-10-31T01:50:02;4.27;;;2.00;;
2602;SDS011;1311;47.966;7.958;2022-10-31T01:52:32;2.90;;;1.90;;
2602;SDS011;1311;47.966;7.958;2022-10-31T01:55:04;5.83;;;2.03;;
2602;SDS011;1311;47.966;7.958;2022-10-31T01:57:34;3.23;;;2.00;;
2602;SDS011;1311;47.966;7.958;2022-10-31T02:00:04;3.20;;;2.07;;
2602;SDS011;1311;47.966;7.958;2022-10-31T02:02:35;3.13;;;2.60;;
2602;SDS011;1311;47.966;7.958;2022-10-31T02:05:02;3.10;;;2.00;;
2602;SDS011;1311;47.966;7.958;2022-10-31T02:07:33;6.00;;;2.17;;
2602;SDS011;1311;47.966;7.958;2022-10-31T02:10:05;4.20;;;2.00;;
2602;SDS011;1311;47.966;7.958;2022-10-31T02:12:32;5.53;;;1.83;;
2602;SDS011;1311;47.966;7.958;2022-10-31T02:15:02;6.20;;;2.20;;
2602;SDS011;1311;47.966;7.958;2022-10-31T02:17:30;4.10;;;1.90;;
2602;SDS011;1311;47.966;7.958;2022-10-31T02:20:03;7.97;;;1.93;;
2602;SDS011;1311;47.966;7.958;2022-10-31T02:22:39;5.80;;;1.73;;
2602;SDS011;1311;47.966;7.958;2022-10-31T02:28:34;6.23;;;1.90;;
2602;SDS011;1311;47.966;7.958;2022-10-31T02:31:20;3.07;;;2.30;;
2602;SDS011;1311;47.966;7.958;2022-10-31T02:33:57;3.90;;;2.43;;
2602;SDS011;1311;47.966;7.958;2022-10-31T02:36:31;7.30;;;2.80;;
2602;SDS011;1311;47.966;7.958;2022-10-31T02:39:02;1.77;;;1.60;;
2602;SDS011;1311;47.966;7.958;2022-10-31T02:41:37;3.37;;;2.27;;
2602;SDS011;1311;47.966;7.958;2022-10-31T02:44:14;2.30;;;2.10;;
2602;SDS011;1311;47.966;7.958;2022-10-31T02:46:49;4.17;;;1.83;;
2602;SDS011;1311;47.966;7.958;2022-10-31T02:49:21;2.57;;;1.70;;
2602;SDS011;1311;47.966;7.958;2022-10-31T02:51:50;2.03;;;1.83;;
2602;SDS011;1311;47.966;7.958;2022-10-31T02:54:18;1.90;;;1.60;;
2602;SDS011;1311;47.966;7.958;2022-10-31T02:56:47;4.90;;;2.47;;
2602;SDS011;1311;47.966;7.958;2022-10-31T02:59:15;7.93;;;2.30;;
2602;SDS011;1311;47.966;7.958;2022-10-31T03:01:51;3.97;;;2.20;;
2602;SDS011;1311;47.966;7.958;2022-10-31T03:04:33;2.73;;;1.57;;
2602;SDS011;1311;47.966;7.958;2022-10-31T03:07:12;5.30;;;2.13;;
2602;SDS011;1311;47.966;7.958;2022-10-31T03:09:46;3.97;;;1.90;;
2602;SDS011;1311;47.966;7.958;2022-10-31T03:12:26;5.60;;;1.90;;
2602;SDS011;1311;47.966;7.958;2022-10-31T03:14:58;4.20;;;2.07;;
2602;SDS011;1311;47.966;7.958;2022-10-31T03:17:36;4.33;;;2.10;;
2602;SDS011;1311;47.966;7.958;2022-10-31T03:20:06;6.03;;;2.30;;
2602;SDS011;1311;47.966;7.958;2022-10-31T03:22:36;2.70;;;1.73;;
2602;SDS011;1311;47.966;7.958;2022-10-31T03:25:05;3.37;;;2.10;;
2602;SDS011;1311;47.966;7.958;2022-10-31T03:27:33;3.00;;;2.20;;
2602;SDS011;1311;47.966;7.958;2022-10-31T03:30:04;2.10;;;1.80;;
2602;SDS011;1311;47.966;7.958;2022-10-31T03:32:35;2.83;;;1.80;;
2602;SDS011;1311;47.966;7.958;2022-10-31T03:35:06;3.17;;;1.70;;
2602;SDS011;1311;47.966;7.958;2022-10-31T03:37:37;5.00;;;2.07;;
2602;SDS011;1311;47.966;7.958;2022-10-31T03:40:06;3.30;;;1.97;;
2602;SDS011;1311;47.966;7.958;2022-10-31T03:42:37;3.30;;;2.13;;
2602;SDS011;1311;47.966;7.958;2022-10-31T03:45:07;2.93;;;1.80;;
2602;SDS011;1311;47.966;7.958;2022-10-31T03:47:39;2.23;;;1.40;;
2602;SDS011;1311;47.966;7.958;2022-10-31T03:50:09;2.93;;;2.07;;
2602;SDS011;1311;47.966;7.958;2022-10-31T03:52:41;3.03;;;1.93;;
2602;SDS011;1311;47.966;7.958;2022-10-31T03:55:15;3.33;;;2.10;;
2602;SDS011;1311;47.966;7.958;2022-10-31T03:57:45;2.97;;;2.20;;
2602;SDS011;1311;47.966;7.958;2022-10-31T04:00:17;4.87;;;1.80;;
2602;SDS011;1311;47.966;7.958;2022-10-31T04:02:47;5.30;;;2.07;;
2602;SDS011;1311;47.966;7.958;2022-10-31T04:05:19;2.20;;;1.77;;
2602;SDS011;1311;47.966;7.958;2022-10-31T04:07:48;2.80;;;2.10;;
2602;SDS011;1311;47.966;7.958;2022-10-31T04:10:18;2.77;;;1.83;;
2602;SDS011;1311;47.966;7.958;2022-10-31T04:12:48;4.70;;;2.10;;
2602;SDS011;1311;47.966;7.958;2022-10-31T04:15:22;3.50;;;1.80;;
2602;SDS011;1311;47.966;7.958;2022-10-31T04:17:52;8.20;;;2.20;;
2602;SDS011;1311;47.966;7.958;2022-10-31T04:20:28;3.20;;;1.63;;
2602;SDS011;1311;47.966;7.958;2022-10-31T04:22:56;4.37;;;2.27;;
2602;SDS011;1311;47.966;7.958;2022-10-31T04:25:23;5.20;;;2.03;;
2602;SDS011;1311;47.966;7.958;2022-10-31T04:27:50;2.47;;;1.60;;
2602;SDS011;1311;47.966;7.958;2022-10-31T04:30:16;7.63;;;2.90;;
2602;SDS011;1311;47.966;7.958;2022-10-31T04:32:43;6.27;;;1.83;;
2602;SDS011;1311;47.966;7.958;2022-10-31T04:35:11;2.43;;;1.67;;
2602;SDS011;1311;47.966;7.958;2022-10-31T04:37:38;5.53;;;1.80;;
2602;SDS011;1311;47.966;7.958;2022-10-31T04:40:05;4.20;;;2.03;;
2602;SDS011;1311;47.966;7.958;2022-10-31T04:42:33;3.10;;;1.90;;
2602;SDS011;1311;47.966;7.958;2022-10-31T04:45:00;4.73;;;2.37;;
2602;SDS011;1311;47.966;7.958;2022-10-31T04:47:26;6.30;;;2.13;;
2602;SDS011;1311;47.966;7.958;2022-10-31T04:49:53;5.23;;;2.30;;
2602;SDS011;1311;47.966;7.958;2022-10-31T04:52:21;3.70;;;1.70;;
2602;SDS011;1311;47.966;7.958;2022-10-31T04:54:48;5.53;;;2.80;;
2602;SDS011;1311;47.966;7.958;2022-10-31T04:57:15;5.20;;;2.10;;
2602;SDS011;1311;47.966;7.958;2022-10-31T04:59:41;5.27;;;2.03;;
2602;SDS011;1311;47.966;7.958;2022-10-31T05:02:08;2.43;;;2.00;;
2602;SDS011;1311;47.966;7.958;2022-10-31T05:04:35;2.17;;;1.80;;
2602;SDS011;1311;47.966;7.958;2022-10-31T05:07:02;3.80;;;2.00;;
2602;SDS011;1311;47.966;7.958;2022-10-31T05:09:30;4.27;;;2.40;;
2602;SDS011;1311;47.966;7.958;2022-10-31T05:11:57;3.33;;;2.03;;
2602;SDS011;1311;47.966;7.958;2022-10-31T05:14:23;3.73;;;2.50;;
2602;SDS011;1311;47.966;7.958;2022-10-31T05:16:50;8.07;;;2.17;;
2602;SDS011;1311;47.966;7.958;2022-10-31T05:19:17;2.63;;;2.00;;
2602;SDS011;1311;47.966;7.958;2022-10-31T05:21:43;3.13;;;1.83;;
2602;SDS011;1311;47.966;7.958;2022-10-31T05:24:10;3.80;;;2.17;;
2602;SDS011;1311;47.966;7.958;2022-10-31T05:26:38;5.43;;;1.87;;
2602;SDS011;1311;47.966;7.958;2022-10-31T05:29:05;3.90;;;2.30;;
2602;SDS011;1311;47.966;7.958;2022-10-31T05:31:32;4.10;;;2.00;;
2602;SDS011;1311;47.966;7.958;2022-10-31T05:33:59;3.40;;;1.90;;
2602;SDS011;1311;47.966;7.958;2022-10-31T05:36:25;3.73;;;2.33;;
2602;SDS011;1311;47.966;7.958;2022-10-31T05:38:52;4.40;;;2.50;;
2602;SDS011;1311;47.966;7.958;2022-10-31T05:41:19;4.63;;;2.20;;
2602;SDS011;1311;47.966;7.958;2022-10-31T05:43:47;4.53;;;2.20;;
2602;SDS011;1311;47.966;7.958;2022-10-31T05:46:14;4.70;;;1.90;;
2602;SDS011;1311;47.966;7.958;2022-10-31T05:48:40;3.23;;;2.10;;
2602;SDS011;1311;47.966;7.958;2022-10-31T05:51:07;6.40;;;2.73;;
2602;SDS011;1311;47.966;7.958;2022-10-31T05:53:34;3.67;;;2.10;;
2602;SDS011;1311;47.966;7.958;2022-10-31T05:56:01;4.43;;;2.50;;
2602;SDS011;1311;47.966;7.958;2022-10-31T05:58:28;3.33;;;1.93;;
2602;SDS011;1311;47.966;7.958;2022-10-31T06:00:57;2.80;;;2.27;;
2602;SDS011;1311;47.966;7.958;2022-10-31T06:03:23;3.33;;;2.10;;
2602;SDS011;1311;47.966;7.958;2022-10-31T06:05:50;2.67;;;1.93;;
2602;SDS011;1311;47.966;7.958;2022-10-31T06:08:17;4.83;;;1.90;;
2602;SDS011;1311;47.966;7.958;2022-10-31T06:10:44;1.60;;;1.50;;
2602;SDS011;1311;47.966;7.958;2022-10-31T06:13:11;3.80;;;1.73;;
2602;SDS011;1311;47.966;7.958;2022-10-31T06:15:37;3.80;;;2.40;;
2602;SDS011;1311;47.966;7.958;2022-10-31T06:18:05;3.47;;;1.90;;
2602;SDS011;1311;47.966;7.958;2022-10-31T06:20:32;3.30;;;2.10;;
2602;SDS011;1311;47.966;7.958;2022-10-31T06:23:00;4.03;;;2.10;;
2602;SDS011;1311;47.966;7.958;2022-10-31T06:25:31;3.40;;;2.07;;
2602;SDS011;1311;47.966;7.958;2022-10-31T06:27:58;2.80;;;2.10;;
2602;SDS011;1311;47.966;7.958;2022-10-31T06:30:25;2.40;;;1.40;;
2602;SDS011;1311;47.966;7.958;2022-10-31T06:32:52;2.60;;;2.07;;
2602;SDS011;1311;47.966;7.958;2022-10-31T06:35:20;3.70;;;2.77;;
2602;SDS011;1311;47.966;7.958;2022-10-31T06:37:50;4.40;;;2.80;;
2602;SDS011;1311;47.966;7.958;2022-10-31T06:40:18;3.13;;;2.33;;
2602;SDS011;1311;47.966;7.958;2022-10-31T06:42:45;3.93;;;2.20;;
2602;SDS011;1311;47.966;7.958;2022-10-31T06:45:12;6.67;;;2.27;;
2602;SDS011;1311;47.966;7.958;2022-10-31T06:47:38;3.17;;;2.20;;
2602;SDS011;1311;47.966;7.958;2022-10-31T06:50:06;5.10;;;2.10;;
2602;SDS011;1311;47.966;7.958;2022-10-31T06:52:34;4.10;;;2.10;;
2602;SDS011;1311;47.966;7.958;2022-10-31T06:55:01;2.93;;;2.63;;
2602;SDS011;1311;47.966;7.958;2022-10-31T06:57:28;2.77;;;2.10;;
2602;SDS011;1311;47.966;7.958;2022-10-31T06:59:55;3.83;;;1.87;;
2602;SDS011;1311;47.966;7.958;2022-10-31T07:02:21;4.67;;;2.40;;
2602;SDS011;1311;47.966;7.958;2022-10-31T07:04:48;3.70;;;2.37;;
2602;SDS011;1311;47.966;7.958;2022-10-31T07:07:15;4.00;;;2.30;;
2602;SDS011;1311;47.966;7.958;2022-10-31T07:09:43;3.67;;;2.77;;
2602;SDS011;1311;47.966;7.958;2022-10-31T07:12:10;4.00;;;2.70;;
2602;SDS011;1311;47.966;7.958;2022-10-31T07:14:36;4.10;;;2.20;;
2602;SDS011;1311;47.966;7.958;2022-10-31T07:17:03;6.87;;;3.90;;
2602;SDS011;1311;47.966;7.958;2022-10-31T07:19:30;6.37;;;3.73;;
2602;SDS011;1311;47.966;7.958;2022-10-31T07:21:57;4.90;;;3.80;;
2602;SDS011;1311;47.966;7.958;2022-10-31T07:24:23;5.13;;;3.20;;
2602;SDS011;1311;47.966;7.958;2022-10-31T07:26:51;4.70;;;3.07;;
2602;SDS011;1311;47.966;7.958;2022-10-31T07:29:18;8.03;;;3.53;;
2602;SDS011;1311;47.966;7.958;2022-10-31T07:31:45;6.53;;;3.60;;
2602;SDS011;1311;47.966;7.958;2022-10-31T07:34:12;4.50;;;3.60;;
2602;SDS011;1311;47.966;7.958;2022-10-31T07:36:39;3.83;;;3.27;;
2602;SDS011;1311;47.966;7.958;2022-10-31T07:39:06;3.63;;;2.73;;
2602;SDS011;1311;47.966;7.958;2022-10-31T07:41:32;3.63;;;2.50;;
2602;SDS011;1311;47.966;7.958;2022-10-31T07:44:00;4.53;;;2.23;;
2602;SDS011;1311;47.966;7.958;2022-10-31T07:46:28;3.83;;;1.93;;
2602;SDS011;1311;47.966;7.958;2022-10-31T07:48:55;3.73;;;1.90;;
2602;SDS011;1311;47.966;7.958;2022-10-31T07:51:22;3.40;;;2.17;;
2602;SDS011;1311;47.966;7.958;2022-10-31T07:53:49;2.57;;;2.03;;
2602;SDS011;1311;47.966;7.958;2022-10-31T07:56:16;6.63;;;2.10;;
2602;SDS011;1311;47.966;7.958;2022-10-31T07:58:42;4.60;;;2.40;;
2602;SDS011;1311;47.966;7.958;2022-10-31T08:01:10;3.10;;;2.33;;
2602;SDS011;1311;47.966;7.958;2022-10-31T08:03:37;4.50;;;2.60;;
2602;SDS011;1311;47.966;7.958;2022-10-31T08:06:04;3.93;;;2.40;;
2602;SDS011;1311;47.966;7.958;2022-10-31T08:08:31;2.43;;;1.97;;
2602;SDS011;1311;47.966;7.958;2022-10-31T08:10:58;4.60;;;2.43;;
2602;SDS011;1311;47.966;7.958;2022-10-31T08:13:25;4.70;;;3.40;;
2602;SDS011;1311;47.966;7.958;2022-10-31T08:15:52;6.33;;;3.63;;
2602;SDS011;1311;47.966;7.958;2022-10-31T08:18:20;5.63;;;3.73;;
2602;SDS011;1311;47.966;7.958;2022-10-31T08:20:48;5.83;;;3.27;;
2602;SDS011;1311;47.966;7.958;2022-10-31T08:23:15;8.47;;;3.20;;
2602;SDS011;1311;47.966;7.958;2022-10-31T08:25:42;4.23;;;2.67;;
2602;SDS011;1311;47.966;7.958;2022-10-31T08:28:11;6.40;;;2.80;;
2602;SDS011;1311;47.966;7.958;2022-10-31T08:30:38;5.10;;;2.43;;
2602;SDS011;1311;47.966;7.958;2022-10-31T08:33:06;2.60;;;2.40;;
2602;SDS011;1311;47.966;7.958;2022-10-31T08:35:36;5.13;;;3.03;;
2602;SDS011;1311;47.966;7.958;2022-10-31T08:38:03;3.73;;;2.47;;
2602;SDS011;1311;47.966;7.958;2022-10-31T08:40:32;4.63;;;2.43;;
2602;SDS011;1311;47.966;7.958;2022-10-31T08:43:00;6.40;;;2.60;;
2602;SDS011;1311;47.966;7.958;2022-10-31T08:45:32;5.30;;;2.67;;
2602;SDS011;1311;47.966;7.958;2022-10-31T08:48:00;4.17;;;2.40;;
2602;SDS011;1311;47.966;7.958;2022-10-31T08:50:32;3.60;;;1.93;;
2602;SDS011;1311;47.966;7.958;2022-10-31T08:53:01;3.50;;;2.57;;
2602;SDS011;1311;47.966;7.958;2022-10-31T08:55:29;3.53;;;1.83;;
2602;SDS011;1311;47.966;7.958;2022-10-31T08:57:56;4.47;;;2.30;;
2602;SDS011;1311;47.966;7.958;2022-10-31T09:00:24;3.40;;;2.50;;
2602;SDS011;1311;47.966;7.958;2022-10-31T09:02:54;5.87;;;2.60;;
2602;SDS011;1311;47.966;7.958;2022-10-31T09:05:23;2.90;;;2.20;;
2602;SDS011;1311;47.966;7.958;2022-10-31T09:07:50;5.30;;;1.80;;
2602;SDS011;1311;47.966;7.958;2022-10-31T09:10:18;4.10;;;2.73;;
2602;SDS011;1311;47.966;7.958;2022-10-31T09:12:45;6.70;;;2.60;;
2602;SDS011;1311;47.966;7.958;2022-10-31T09:15:12;4.67;;;2.30;;
2602;SDS011;1311;47.966;7.958;2022-10-31T09:17:39;4.77;;;2.50;;
2602;SDS011;1311;47.966;7.958;2022-10-31T09:20:11;7.63;;;2.70;;
2602;SDS011;1311;47.966;7.958;2022-10-31T09:22:41;3.50;;;2.13;;
2602;SDS011;1311;47.966;7.958;2022-10-31T09:25:08;7.47;;;2.67;;
2602;SDS011;1311;47.966;7.958;2022-10-31T09:27:36;5.40;;;2.53;;
2602;SDS011;1311;47.966;7.958;2022-10-31T09:30:03;7.90;;;2.37;;
2602;SDS011;1311;47.966;7.958;2022-10-31T09:32:30;5.87;;;3.77;;
2602;SDS011;1311;47.966;7.958;2022-10-31T09:34:57;3.13;;;2.33;;
2602;SDS011;1311;47.966;7.958;2022-10-31T09:37:24;3.57;;;2.70;;
2602;SDS011;1311;47.966;7.958;2022-10-31T09:39:51;4.07;;;3.23;;
2602;SDS011;1311;47.966;7.958;2022-10-31T09:42:24;4.77;;;2.13;;
2602;SDS011;1311;47.966;7.958;2022-10-31T09:45:14;3.90;;;2.53;;
2602;SDS011;1311;47.966;7.958;2022-10-31T09:47:51;8.60;;;2.50;;
2602;SDS011;1311;47.966;7.958;2022-10-31T09:50:28;4.50;;;2.40;;
2602;SDS011;1311;47.966;7.958;2022-10-31T09:53:00;3.13;;;2.50;;
2602;SDS011;1311;47.966;7.958;2022-10-31T09:55:31;2.87;;;2.30;;
2602;SDS011;1311;47.966;7.958;2022-10-31T09:58:03;4.90;;;2.87;;
2602;SDS011;1311;47.966;7.958;2022-10-31T10:00:32;4.80;;;3.03;;
2602;SDS011;1311;47.966;7.958;2022-10-31T10:03:00;2.77;;;2.53;;
2602;SDS011;1311;47.966;7.958;2022-10-31T10:05:34;4.23;;;2.90;;
2602;SDS011;1311;47.966;7.958;2022-10-31T10:08:08;3.87;;;2.47;;
2602;SDS011;1311;47.966;7.958;2022-10-31T10:10:41;5.10;;;2.10;;
2602;SDS011;1311;47.966;7.958;2022-10-31T10:13:22;2.93;;;2.50;;
2602;SDS011;1311;47.966;7.958;2022-10-31T10:16:03;4.20;;;2.53;;
2602;SDS011;1311;47.966;7.958;2022-10-31T10:18:41;3.20;;;2.13;;
2602;SDS011;1311;47.966;7.958;2022-10-31T10:21:25;3.93;;;2.87;;
2602;SDS011;1311;47.966;7.958;2022-10-31T10:24:03;6.57;;;4.10;;
2602;SDS011;1311;47.966;7.958;2022-10-31T10:26:40;7.73;;;4.03;;
2602;SDS011;1311;47.966;7.958;2022-10-31T10:29:17;4.60;;;2.80;;
2602;SDS011;1311;47.966;7.958;2022-10-31T10:31:55;5.03;;;2.80;;
2602;SDS011;1311;47.966;7.958;2022-10-31T10:34:29;4.23;;;2.70;;
2602;SDS011;1311;47.966;7.958;2022-10-31T10:37:01;3.80;;;1.90;;
2602;SDS011;1311;47.966;7.958;2022-10-31T10:39:32;3.47;;;1.80;;
2602;SDS011;1311;47.966;7.958;2022-10-31T10:42:07;5.67;;;2.80;;
2602;SDS011;1311;47.966;7.958;2022-10-31T10:44:54;4.23;;;1.93;;
2602;SDS011;1311;47.966;7.958;2022-10-31T10:47:41;8.50;;;3.20;;
2602;SDS011;1311;47.966;7.958;2022-10-31T10:50:10;10.57;;;3.40;;
2602;SDS011;1311;47.966;7.958;2022-10-31T10:52:42;3.40;;;3.03;;
2602;SDS011;1311;47.966;7.958;2022-10-31T10:55:21;8.30;;;4.53;;
2602;SDS011;1311;47.966;7.958;2022-10-31T10:57:56;6.87;;;4.00;;
2602;SDS011;1311;47.966;7.958;2022-10-31T11:00:25;5.77;;;3.67;;
2602;SDS011;1311;47.966;7.958;2022-10-31T11:03:00;10.03;;;4.40;;
2602;SDS011;1311;47.966;7.958;2022-10-31T11:05:33;7.53;;;4.17;;
2602;SDS011;1311;47.966;7.958;2022-10-31T11:08:06;7.77;;;4.60;;
2602;SDS011;1311;47.966;7.958;2022-10-31T11:10:36;8.47;;;4.00;;
2602;SDS011;1311;47.966;7.958;2022-10-31T11:13:16;8.33;;;4.20;;
2602;SDS011;1311;47.966;7.958;2022-10-31T11:15:53;5.00;;;3.40;;
2602;SDS011;1311;47.966;7.958;2022-10-31T11:18:28;7.60;;;4.70;;
2602;SDS011;1311;47.966;7.958;2022-10-31T11:20:58;11.03;;;4.30;;
2602;SDS011;1311;47.966;7.958;2022-10-31T11:23:29;5.67;;;4.67;;
2602;SDS011;1311;47.966;7.958;2022-10-31T11:25:57;8.53;;;4.53;;
2602;SDS011;1311;47.966;7.958;2022-10-31T11:28:25;8.73;;;4.80;;
2602;SDS011;1311;47.966;7.958;2022-10-31T11:30:54;6.93;;;4.40;;
2602;SDS011;1311;47.966;7.958;2022-10-31T11:33:25;2.90;;;2.50;;
2602;SDS011;1311;47.966;7.958;2022-10-31T11:35:55;2.83;;;2.50;;
2602;SDS011;1311;47.966;7.958;2022-10-31T11:38:32;2.67;;;2.40;;
2602;SDS011;1311;47.966;7.958;2022-10-31T11:41:06;4.90;;;2.57;;
2602;SDS011;1311;47.966;7.958;2022-10-31T11:43:38;2.60;;;2.20;;
2602;SDS011;1311;47.966;7.958;2022-10-31T11:46:15;5.20;;;4.20;;
2602;SDS011;1311;47.966;7.958;2022-10-31T11:48:48;6.57;;;4.10;;
2602;SDS011;1311;47.966;7.958;2022-10-31T11:51:20;4.70;;;3.10;;
2602;SDS011;1311;47.966;7.958;2022-10-31T11:53:50;5.33;;;3.63;;
2602;SDS011;1311;47.966;7.958;2022-10-31T11:56:18;7.50;;;3.97;;
2602;SDS011;1311;47.966;7.958;2022-10-31T11:58:54;5.20;;;2.80;;
2602;SDS011;1311;47.966;7.958;2022-10-31T12:01:23;2.80;;;2.27;;
2602;SDS011;1311;47.966;7.958;2022-10-31T12:04:00;2.77;;;2.07;;
2602;SDS011;1311;47.966;7.958;2022-10-31T12:06:33;2.90;;;2.30;;
2602;SDS011;1311;47.966;7.958;2022-10-31T12:09:01;2.57;;;2.20;;
2602;SDS011;1311;47.966;7.958;2022-10-31T12:11:35;2.80;;;2.20;;
2602;SDS011;1311;47.966;7.958;2022-10-31T12:14:14;3.60;;;2.23;;
2602;SDS011;1311;47.966;7.958;2022-10-31T12:16:53;3.80;;;2.73;;
2602;SDS011;1311;47.966;7.958;2022-10-31T12:19:27;5.03;;;3.10;;
2602;SDS011;1311;47.966;7.958;2022-10-31T12:22:06;6.63;;;3.30;;
2602;SDS011;1311;47.966;7.958;2022-10-31T12:45:28;4.20;;;2.50;;
2602;SDS011;1311;47.966;7.958;2022-10-31T12:48:16;3.33;;;2.47;;
2602;SDS011;1311;47.966;7.958;2022-10-31T12:51:08;3.43;;;2.10;;
2602;SDS011;1311;47.966;7.958;2022-10-31T12:53:45;4.40;;;2.60;;
2602;SDS011;1311;47.966;7.958;2022-10-31T12:56:31;3.17;;;2.40;;
2602;SDS011;1311;47.966;7.958;2022-10-31T12:59:08;7.47;;;2.80;;
2602;SDS011;1311;47.966;7.958;2022-10-31T13:01:41;4.83;;;2.20;;
2602;SDS011;1311;47.966;7.958;2022-10-31T13:04:14;5.00;;;2.53;;
2602;SDS011;1311;47.966;7.958;2022-10-31T13:06:48;2.37;;;2.10;;
2602;SDS011;1311;47.966;7.958;2022-10-31T13:09:17;3.17;;;2.07;;
2602;SDS011;1311;47.966;7.958;2022-10-31T13:11:51;2.97;;;1.90;;
2602;SDS011;1311;47.966;7.958;2022-10-31T13:14:23;2.27;;;1.60;;
2602;SDS011;1311;47.966;7.958;2022-10-31T13:16:53;2.27;;;1.63;;
2602;SDS011;1311;47.966;7.958;2022-10-31T13:19:23;2.47;;;1.90;;
2602;SDS011;1311;47.966;7.958;2022-10-31T13:21:57;2.47;;;1.63;;
2602;SDS011;1311;47.966;7.958;2022-10-31T13:24:41;2.37;;;1.53;;
2602;SDS011;1311;47.966;7.958;2022-10-31T13:27:14;7.03;;;2.60;;
2602;SDS011;1311;47.966;7.958;2022-10-31T13:29:49;4.47;;;2.40;;
2602;SDS011;1311;47.966;7.958;2022-10-31T13:32:22;5.63;;;2.53;;
2602;SDS011;1311;47.966;7.958;2022-10-31T13:34:51;3.83;;;2.93;;
2602;SDS011;1311;47.966;7.958;2022-10-31T13:37:32;8.67;;;3.73;;
2602;SDS011;1311;47.966;7.958;2022-10-31T13:40:11;5.30;;;3.43;;
2602;SDS011;1311;47.966;7.958;2022-10-31T13:42:48;4.70;;;3.90;;
2602;SDS011;1311;47.966;7.958;2022-10-31T13:45:22;9.20;;;4.10;;
2602;SDS011;1311;47.966;7.958;2022-10-31T13:47:58;11.30;;;5.23;;
2602;SDS011;1311;47.966;7.958;2022-10-31T13:50:26;7.90;;;4.60;;
2602;SDS011;1311;47.966;7.958;2022-10-31T13:55:48;7.90;;;5.10;;
2602;SDS011;1311;47.966;7.958;2022-10-31T13:58:20;8.20;;;4.07;;
2602;SDS011;1311;47.966;7.958;2022-10-31T14:01:11;3.83;;;3.47;;
2602;SDS011;1311;47.966;7.958;2022-10-31T14:03:42;9.53;;;5.23;;
2602;SDS011;1311;47.966;7.958;2022-10-31T14:06:12;7.73;;;4.77;;
2602;SDS011;1311;47.966;7.958;2022-10-31T14:08:47;8.50;;;4.63;;
2602;SDS011;1311;47.966;7.958;2022-10-31T14:11:19;5.73;;;3.40;;
2602;SDS011;1311;47.966;7.958;2022-10-31T14:13:49;3.20;;;2.57;;
2602;SDS011;1311;47.966;7.958;2022-10-31T14:16:17;6.00;;;4.30;;
2602;SDS011;1311;47.966;7.958;2022-10-31T14:18:48;7.97;;;4.20;;
2602;SDS011;1311;47.966;7.958;2022-10-31T14:21:25;5.97;;;4.40;;
2602;SDS011;1311;47.966;7.958;2022-10-31T14:23:55;6.37;;;3.63;;
2602;SDS011;1311;47.966;7.958;2022-10-31T14:26:33;3.13;;;2.83;;
2602;SDS011;1311;47.966;7.958;2022-10-31T14:29:02;3.43;;;3.13;;
2602;SDS011;1311;47.966;7.958;2022-10-31T14:31:53;6.53;;;3.00;;
2602;SDS011;1311;47.966;7.958;2022-10-31T14:34:33;3.40;;;2.37;;
2602;SDS011;1311;47.966;7.958;2022-10-31T14:37:04;5.50;;;3.13;;
2602;SDS011;1311;47.966;7.958;2022-10-31T14:39:44;5.40;;;3.50;;
2602;SDS011;1311;47.966;7.958;2022-10-31T14:42:25;6.20;;;3.37;;
2602;SDS011;1311;47.966;7.958;2022-10-31T14:45:05;3.40;;;3.10;;
2602;SDS011;1311;47.966;7.958;2022-10-31T14:47:55;5.20;;;3.30;;
2602;SDS011;1311;47.966;7.958;2022-10-31T14:50:43;3.60;;;2.50;;
2602;SDS011;1311;47.966;7.958;2022-10-31T14:53:15;2.70;;;2.10;;
2602;SDS011;1311;47.966;7.958;2022-10-31T14:55:49;4.00;;;2.63;;
2602;SDS011;1311;47.966;7.958;2022-10-31T14:58:20;2.70;;;2.10;;
2602;SDS011;1311;47.966;7.958;2022-10-31T15:00:50;2.97;;;2.27;;
2602;SDS011;1311;47.966;7.958;2022-10-31T15:03:22;2.70;;;2.43;;
2602;SDS011;1311;47.966;7.958;2022-10-31T15:05:53;2.50;;;2.30;;
2602;SDS011;1311;47.966;7.958;2022-10-31T15:08:35;3.20;;;2.50;;
2602;SDS011;1311;47.966;7.958;2022-10-31T15:11:13;5.20;;;3.43;;
2602;SDS011;1311;47.966;7.958;2022-10-31T15:13:42;6.70;;;3.83;;
2602;SDS011;1311;47.966;7.958;2022-10-31T15:16:10;5.80;;;4.07;;
2602;SDS011;1311;47.966;7.958;2022-10-31T15:18:44;7.30;;;4.50;;
2602;SDS011;1311;47.966;7.958;2022-10-31T15:21:15;6.70;;;5.47;;
2602;SDS011;1311;47.966;7.958;2022-10-31T15:23:43;7.30;;;5.00;;
2602;SDS011;1311;47.966;7.958;2022-10-31T15:26:14;6.87;;;5.10;;
2602;SDS011;1311;47.966;7.958;2022-10-31T15:28:44;6.20;;;4.87;;
2602;SDS011;1311;47.966;7.958;2022-10-31T15:31:15;5.70;;;5.03;;
2602;SDS011;1311;47.966;7.958;2022-10-31T15:33:46;4.30;;;3.90;;
2602;SDS011;1311;47.966;7.958;2022-10-31T15:36:18;7.03;;;4.93;;
2602;SDS011;1311;47.966;7.958;2022-10-31T15:38:46;6.67;;;5.67;;
2602;SDS011;1311;47.966;7.958;2022-10-31T15:41:23;8.60;;;5.30;;
2602;SDS011;1311;47.966;7.958;2022-10-31T15:43:55;5.57;;;4.63;;
2602;SDS011;1311;47.966;7.958;2022-10-31T15:46:29;8.40;;;4.63;;
2602;SDS011;1311;47.966;7.958;2022-10-31T15:48:57;10.93;;;6.70;;
2602;SDS011;1311;47.966;7.958;2022-10-31T15:51:31;7.73;;;5.20;;
2602;SDS011;1311;47.966;7.958;2022-10-31T15:54:02;6.00;;;4.77;;
2602;SDS011;1311;47.966;7.958;2022-10-31T15:56:30;7.60;;;5.13;;
2602;SDS011;1311;47.966;7.958;2022-10-31T15:58:58;9.07;;;5.97;;
2602;SDS011;1311;47.966;7.958;2022-10-31T16:01:29;6.97;;;5.53;;
2602;SDS011;1311;47.966;7.958;2022-10-31T16:03:58;9.37;;;5.13;;